Time,TemperatureF,DewpointF,PressureIn,WindDirection,WindDirectionDegrees,WindSpeedMPH,WindSpeedGustMPH,Humidity,HourlyPrecipIn,Conditions,Clouds,dailyrainin,SoftwareType,DateUTC
2013-01-14 00:00:00,59.9,58.2,30.07,SSW,205,0.0,0.0,94,0.00,,---,0.00,VWS V14.01,2013-01-14 05:00:00,
2013-01-14 00:04:00,59.8,58.1,30.07,SSW,205,1.0,2.0,94,0.00,,---,0.00,VWS V14.01,2013-01-14 05:04:00,
2013-01-14 00:05:00,59.8,58.1,30.07,SSW,205,1.0,2.0,94,0.00,,---,0.00,VWS V14.01,2013-01-14 05:05:00,
2013-01-14 00:09:00,59.9,58.2,30.07,SSW,205,0.0,2.0,94,0.00,,---,0.00,VWS V14.01,2013-01-14 05:09:00,
2013-01-14 00:10:00,59.9,58.2,30.07,SSW,205,0.0,2.0,94,0.00,,---,0.00,VWS V14.01,2013-01-14 05:10:00,
2013-01-14 00:15:00,60.0,58.3,30.06,SSW,205,0.0,1.0,94,0.00,,---,0.00,VWS V14.01,2013-01-14 05:15:00,
2013-01-14 00:19:00,60.0,58.3,30.06,SSW,205,0.0,0.0,94,0.00,,---,0.00,VWS V14.01,2013-01-14 05:19:00,
2013-01-14 00:20:00,60.0,58.3,30.06,SSW,205,0.0,0.0,94,0.00,,---,0.00,VWS V14.01,2013-01-14 05:20:00,
2013-01-14 00:24:00,60.0,58.3,30.06,SSW,205,0.0,1.0,94,0.00,,---,0.00,VWS V14.01,2013-01-14 05:24:00,
2013-01-14 00:25:00,60.0,58.3,30.06,SSW,205,0.0,1.0,94,0.00,,---,0.00,VWS V14.01,2013-01-14 05:25:00,
2013-01-14 00:29:00,60.0,58.3,30.06,SSW,205,0.0,0.0,94,0.00,,---,0.00,VWS V14.01,2013-01-14 05:29:00,
2013-01-14 00:30:00,60.0,58.3,30.06,SSW,205,0.0,0.0,94,0.00,,---,0.00,VWS V14.01,2013-01-14 05:30:00,
2013-01-14 00:34:00,60.0,58.3,30.06,SSW,205,0.0,2.0,94,0.00,,---,0.00,VWS V14.01,2013-01-14 05:34:00,
2013-01-14 00:35:00,60.0,58.3,30.06,SSW,205,0.0,2.0,94,0.00,,---,0.00,VWS V14.01,2013-01-14 05:35:00,
2013-01-14 00:39:00,60.0,58.3,30.06,SSW,205,0.0,0.0,94,0.00,,---,0.00,VWS V14.01,2013-01-14 05:39:00,
2013-01-14 00:40:00,60.0,58.3,30.06,SSW,205,0.0,0.0,94,0.00,,---,0.00,VWS V14.01,2013-01-14 05:40:00,
2013-01-14 00:45:00,59.9,58.2,30.06,SSW,205,0.0,0.0,94,0.00,,---,0.00,VWS V14.01,2013-01-14 05:45:00,
2013-01-14 00:49:00,59.9,58.2,30.06,SSW,205,0.0,0.0,94,0.00,,---,0.00,VWS V14.01,2013-01-14 05:49:00,
2013-01-14 00:50:00,59.9,58.2,30.06,SSW,205,0.0,0.0,94,0.00,,---,0.00,VWS V14.01,2013-01-14 05:50:00,
2013-01-14 00:55:00,59.7,58.0,30.06,SSW,205,0.0,0.0,94,0.00,,---,0.00,VWS V14.01,2013-01-14 05:55:00,
2013-01-14 01:00:00,59.6,57.9,30.07,SSW,205,0.0,0.0,94,0.00,,---,0.00,VWS V14.01,2013-01-14 06:00:00,
2013-01-14 01:05:00,59.6,57.9,30.07,SSW,205,0.0,0.0,94,0.00,,---,0.00,VWS V14.01,2013-01-14 06:05:00,
2013-01-14 01:09:00,59.6,57.9,30.07,SSW,205,0.0,1.0,94,0.00,,---,0.00,VWS V14.01,2013-01-14 06:09:00,
2013-01-14 01:10:00,59.6,57.9,30.07,SSW,205,0.0,1.0,94,0.00,,---,0.00,VWS V14.01,2013-01-14 06:10:00,
2013-01-14 01:14:00,59.6,58.2,30.07,SSW,205,0.0,0.0,95,0.00,,---,0.00,VWS V14.01,2013-01-14 06:14:00,
2013-01-14 01:15:00,59.6,58.2,30.07,SSW,205,0.0,0.0,95,0.00,,---,0.00,VWS V14.01,2013-01-14 06:15:00,
2013-01-14 01:20:00,59.7,58.3,30.07,SSW,205,0.0,0.0,95,0.00,,---,0.00,VWS V14.01,2013-01-14 06:20:00,
2013-01-14 01:24:00,59.7,58.3,30.07,SSW,205,0.0,0.0,95,0.00,,---,0.00,VWS V14.01,2013-01-14 06:24:00,
2013-01-14 01:25:00,59.7,58.3,30.07,SSW,205,0.0,0.0,95,0.00,,---,0.00,VWS V14.01,2013-01-14 06:25:00,
2013-01-14 01:29:00,59.7,58.3,30.07,SSW,205,0.0,0.0,95,0.00,,---,0.00,VWS V14.01,2013-01-14 06:29:00,
2013-01-14 01:30:00,59.7,58.3,30.07,SSW,205,0.0,0.0,95,0.00,,---,0.00,VWS V14.01,2013-01-14 06:30:00,
2013-01-14 01:34:00,59.6,57.9,30.07,SSW,205,0.0,0.0,94,0.00,,---,0.00,VWS V14.01,2013-01-14 06:34:00,
2013-01-14 01:35:00,59.6,57.9,30.07,SSW,205,0.0,0.0,94,0.00,,---,0.00,VWS V14.01,2013-01-14 06:35:00,
2013-01-14 01:39:00,59.5,57.8,30.07,SSW,205,0.0,0.0,94,0.00,,---,0.00,VWS V14.01,2013-01-14 06:39:00,
2013-01-14 01:40:00,59.5,57.8,30.07,SSW,205,0.0,0.0,94,0.00,,---,0.00,VWS V14.01,2013-01-14 06:40:00,
2013-01-14 01:44:00,59.4,57.7,30.07,SSW,205,0.0,0.0,94,0.00,,---,0.00,VWS V14.01,2013-01-14 06:44:00,
2013-01-14 01:45:00,59.4,57.7,30.07,SSW,205,0.0,0.0,94,0.00,,---,0.00,VWS V14.01,2013-01-14 06:45:00,
2013-01-14 01:49:00,59.3,57.6,30.07,SSW,205,0.0,0.0,94,0.00,,---,0.00,VWS V14.01,2013-01-14 06:49:00,
2013-01-14 01:50:00,59.3,57.6,30.07,SSW,205,0.0,0.0,94,0.00,,---,0.00,VWS V14.01,2013-01-14 06:50:00,
2013-01-14 01:54:00,59.2,57.5,30.07,SSW,205,0.0,0.0,94,0.00,,---,0.00,VWS V14.01,2013-01-14 06:54:00,
2013-01-14 01:55:00,59.2,57.5,30.07,SSW,205,0.0,0.0,94,0.00,,---,0.00,VWS V14.01,2013-01-14 06:55:00,
2013-01-14 01:59:00,59.1,57.4,30.07,SSW,205,0.0,1.0,94,0.00,,---,0.00,VWS V14.01,2013-01-14 06:59:00,
2013-01-14 02:00:00,59.1,57.4,30.07,SSW,205,0.0,1.0,94,0.00,,---,0.00,VWS V14.01,2013-01-14 07:00:00,
2013-01-14 02:05:00,59.1,57.7,30.07,SSW,205,0.0,0.0,95,0.00,,---,0.00,VWS V14.01,2013-01-14 07:05:00,
2013-01-14 02:09:00,59.0,57.6,30.07,SSW,205,0.0,0.0,95,0.00,,---,0.00,VWS V14.01,2013-01-14 07:09:00,
2013-01-14 02:10:00,59.0,57.6,30.07,SSW,205,0.0,0.0,95,0.00,,---,0.00,VWS V14.01,2013-01-14 07:10:00,
2013-01-14 02:14:00,58.9,57.5,30.08,SSW,205,0.0,0.0,95,0.00,,---,0.00,VWS V14.01,2013-01-14 07:14:00,
2013-01-14 02:15:00,58.9,57.5,30.08,SSW,205,0.0,0.0,95,0.00,,---,0.00,VWS V14.01,2013-01-14 07:15:00,
2013-01-14 02:20:00,58.8,57.4,30.08,SSW,205,0.0,0.0,95,0.00,,---,0.00,VWS V14.01,2013-01-14 07:20:00,
2013-01-14 02:25:00,58.7,57.3,30.08,SSW,205,0.0,0.0,95,0.00,,---,0.00,VWS V14.01,2013-01-14 07:25:00,
2013-01-14 02:29:00,58.7,57.3,30.08,SSW,205,0.0,0.0,95,0.00,,---,0.00,VWS V14.01,2013-01-14 07:29:00,
2013-01-14 02:30:00,58.7,57.3,30.08,SSW,205,0.0,0.0,95,0.00,,---,0.00,VWS V14.01,2013-01-14 07:30:00,
2013-01-14 02:34:00,58.7,57.3,30.08,SSW,205,0.0,0.0,95,0.00,,---,0.00,VWS V14.01,2013-01-14 07:34:00,
2013-01-14 02:35:00,58.7,57.3,30.08,SSW,205,0.0,0.0,95,0.00,,---,0.00,VWS V14.01,2013-01-14 07:35:00,
2013-01-14 02:39:00,58.7,57.3,30.08,SSW,205,0.0,0.0,95,0.00,,---,0.00,VWS V14.01,2013-01-14 07:39:00,
2013-01-14 02:40:00,58.7,57.3,30.08,SSW,205,0.0,0.0,95,0.00,,---,0.00,VWS V14.01,2013-01-14 07:40:00,
2013-01-14 02:45:00,58.6,57.2,30.08,SSW,205,0.0,0.0,95,0.00,,---,0.00,VWS V14.01,2013-01-14 07:45:00,
2013-01-14 02:49:00,58.4,57.0,30.08,SSW,205,0.0,0.0,95,0.00,,---,0.00,VWS V14.01,2013-01-14 07:49:00,
2013-01-14 02:50:00,58.4,57.0,30.08,SSW,205,0.0,0.0,95,0.00,,---,0.00,VWS V14.01,2013-01-14 07:50:00,
2013-01-14 02:54:00,58.2,56.8,30.08,SSW,205,0.0,0.0,95,0.00,,---,0.00,VWS V14.01,2013-01-14 07:54:00,
2013-01-14 02:55:00,58.2,56.8,30.08,SSW,205,0.0,0.0,95,0.00,,---,0.00,VWS V14.01,2013-01-14 07:55:00,
2013-01-14 02:59:00,58.0,56.3,30.08,SSW,205,0.0,0.0,94,0.00,,---,0.00,VWS V14.01,2013-01-14 07:59:00,
2013-01-14 03:00:00,58.0,56.3,30.08,SSW,205,0.0,0.0,94,0.00,,---,0.00,VWS V14.01,2013-01-14 08:00:00,
2013-01-14 03:04:00,58.0,56.3,30.08,SSW,205,0.0,0.0,94,0.00,,---,0.00,VWS V14.01,2013-01-14 08:04:00,
2013-01-14 03:05:00,57.1,56.0,30.08,SSW,205,0.0,0.0,96,0.00,,---,0.00,VWS V14.01,2013-01-14 08:05:00,
2013-01-14 03:09:00,57.8,56.4,30.08,SSW,205,0.0,0.0,95,0.00,,---,0.00,VWS V14.01,2013-01-14 08:09:00,
2013-01-14 03:10:00,57.8,56.4,30.08,SSW,205,0.0,0.0,95,0.00,,---,0.00,VWS V14.01,2013-01-14 08:10:00,
2013-01-14 03:15:00,57.8,56.4,30.08,SSW,205,0.0,0.0,95,0.00,,---,0.00,VWS V14.01,2013-01-14 08:15:00,
2013-01-14 03:19:00,57.7,56.3,30.08,SSW,205,0.0,0.0,95,0.00,,---,0.00,VWS V14.01,2013-01-14 08:19:00,
2013-01-14 03:20:00,57.7,56.3,30.08,SSW,205,0.0,0.0,95,0.00,,---,0.00,VWS V14.01,2013-01-14 08:20:00,
2013-01-14 03:24:00,57.7,56.3,30.08,SSW,205,0.0,0.0,95,0.00,,---,0.00,VWS V14.01,2013-01-14 08:24:00,
2013-01-14 03:25:00,57.7,56.3,30.08,SSW,205,0.0,0.0,95,0.00,,---,0.00,VWS V14.01,2013-01-14 08:25:00,
2013-01-14 03:29:00,57.5,56.1,30.08,SSW,205,0.0,0.0,95,0.00,,---,0.00,VWS V14.01,2013-01-14 08:29:00,
2013-01-14 03:30:00,57.5,56.1,30.08,SSW,205,0.0,0.0,95,0.00,,---,0.00,VWS V14.01,2013-01-14 08:30:00,
2013-01-14 03:34:00,57.3,55.9,30.08,SSW,205,0.0,0.0,95,0.00,,---,0.00,VWS V14.01,2013-01-14 08:34:00,
2013-01-14 03:35:00,57.3,55.9,30.08,SSW,205,0.0,0.0,95,0.00,,---,0.00,VWS V14.01,2013-01-14 08:35:00,
2013-01-14 03:40:00,57.3,55.9,30.08,SSW,205,0.0,0.0,95,0.00,,---,0.00,VWS V14.01,2013-01-14 08:40:00,
2013-01-14 03:44:00,57.2,55.8,30.08,SSW,205,0.0,0.0,95,0.00,,---,0.00,VWS V14.01,2013-01-14 08:44:00,
2013-01-14 03:45:00,57.2,55.8,30.08,SSW,205,0.0,0.0,95,0.00,,---,0.00,VWS V14.01,2013-01-14 08:45:00,
2013-01-14 03:49:00,57.2,55.8,30.08,SSW,205,0.0,0.0,95,0.00,,---,0.00,VWS V14.01,2013-01-14 08:49:00,
2013-01-14 03:50:00,57.2,55.8,30.08,SSW,205,0.0,0.0,95,0.00,,---,0.00,VWS V14.01,2013-01-14 08:50:00,
2013-01-14 03:55:00,57.3,56.2,30.08,SSW,205,0.0,0.0,96,0.00,,---,0.00,VWS V14.01,2013-01-14 08:55:00,
2013-01-14 03:59:00,57.2,56.1,30.08,SSW,205,0.0,0.0,96,0.00,,---,0.00,VWS V14.01,2013-01-14 08:59:00,
2013-01-14 04:00:00,57.3,56.2,30.06,SSW,205,0.0,0.0,96,0.01,,---,0.01,VWS V14.01,2013-01-14 09:00:00,
2013-01-14 04:05:00,57.1,56.0,30.08,SSW,205,0.0,0.0,96,0.00,,---,0.00,VWS V14.01,2013-01-14 09:05:00,
2013-01-14 04:10:00,57.1,56.0,30.08,SSW,205,0.0,0.0,96,0.00,,---,0.00,VWS V14.01,2013-01-14 09:10:00,
2013-01-14 04:14:00,57.1,55.7,30.08,SSW,205,0.0,0.0,95,0.00,,---,0.00,VWS V14.01,2013-01-14 09:14:00,
2013-01-14 04:15:00,57.1,55.7,30.08,SSW,205,0.0,0.0,95,0.00,,---,0.00,VWS V14.01,2013-01-14 09:15:00,
2013-01-14 04:20:00,57.0,55.6,30.07,SSW,205,0.0,0.0,95,0.00,,---,0.00,VWS V14.01,2013-01-14 09:20:00,
2013-01-14 04:25:00,57.2,56.1,30.08,SSW,205,0.0,0.0,96,0.00,,---,0.00,VWS V14.01,2013-01-14 09:25:00,
2013-01-14 04:29:00,57.2,56.1,30.07,SSW,205,0.0,0.0,96,0.00,,---,0.00,VWS V14.01,2013-01-14 09:29:00,
2013-01-14 04:30:00,57.2,56.1,30.07,SSW,205,0.0,0.0,96,0.00,,---,0.00,VWS V14.01,2013-01-14 09:30:00,
2013-01-14 04:34:00,57.4,56.3,30.07,SSW,205,0.0,0.0,96,0.00,,---,0.00,VWS V14.01,2013-01-14 09:34:00,
2013-01-14 04:35:00,57.4,56.3,30.07,SSW,205,0.0,0.0,96,0.00,,---,0.00,VWS V14.01,2013-01-14 09:35:00,
2013-01-14 04:40:00,57.4,56.3,30.07,SSW,205,0.0,0.0,96,0.00,,---,0.00,VWS V14.01,2013-01-14 09:40:00,
2013-01-14 04:45:00,57.2,56.1,30.07,SSW,205,0.0,0.0,96,0.00,,---,0.00,VWS V14.01,2013-01-14 09:45:00,
2013-01-14 04:49:00,57.1,56.0,30.07,SSW,205,0.0,0.0,96,0.00,,---,0.00,VWS V14.01,2013-01-14 09:49:00,
2013-01-14 04:50:00,57.1,56.0,30.07,SSW,205,0.0,0.0,96,0.00,,---,0.00,VWS V14.01,2013-01-14 09:50:00,
2013-01-14 04:55:00,57.2,56.1,30.07,SSW,205,0.0,0.0,96,0.01,,---,0.01,VWS V14.01,2013-01-14 09:55:00,
2013-01-14 04:59:00,57.3,56.2,30.06,SSW,205,0.0,0.0,96,0.01,,---,0.01,VWS V14.01,2013-01-14 09:59:00,
2013-01-14 05:00:00,57.3,56.2,30.06,SSW,205,0.0,0.0,96,0.01,,---,0.01,VWS V14.01,2013-01-14 10:00:00,
2013-01-14 05:04:00,57.4,56.3,30.07,SSW,205,0.0,0.0,96,0.01,,---,0.01,VWS V14.01,2013-01-14 10:04:00,
2013-01-14 05:05:00,57.4,56.3,30.07,SSW,205,0.0,0.0,96,0.01,,---,0.01,VWS V14.01,2013-01-14 10:05:00,
2013-01-14 05:10:00,57.5,56.4,30.06,SSW,205,0.0,0.0,96,0.01,,---,0.01,VWS V14.01,2013-01-14 10:10:00,
2013-01-14 05:15:00,57.4,56.3,30.06,SSW,205,0.0,0.0,96,0.01,,---,0.01,VWS V14.01,2013-01-14 10:15:00,
2013-01-14 05:19:00,57.2,56.1,30.06,SSW,205,0.0,0.0,96,0.02,,---,0.02,VWS V14.01,2013-01-14 10:19:00,
2013-01-14 05:20:00,57.2,56.1,30.06,SSW,205,0.0,0.0,96,0.02,,---,0.02,VWS V14.01,2013-01-14 10:20:00,
2013-01-14 05:25:00,57.1,56.0,30.06,SSW,205,0.0,0.0,96,0.02,,---,0.02,VWS V14.01,2013-01-14 10:25:00,
2013-01-14 05:30:00,57.1,56.0,30.06,SSW,205,0.0,0.0,96,0.02,,---,0.02,VWS V14.01,2013-01-14 10:30:00,
2013-01-14 05:34:00,57.1,56.0,30.06,SSW,205,0.0,0.0,96,0.02,,---,0.02,VWS V14.01,2013-01-14 10:34:00,
2013-01-14 05:35:00,57.1,56.0,30.06,SSW,205,0.0,0.0,96,0.02,,---,0.02,VWS V14.01,2013-01-14 10:35:00,
2013-01-14 05:40:00,57.0,55.9,30.05,SSW,205,0.0,0.0,96,0.02,,---,0.02,VWS V14.01,2013-01-14 10:40:00,
2013-01-14 05:44:00,57.1,56.0,30.06,SSW,205,0.0,0.0,96,0.02,,---,0.02,VWS V14.01,2013-01-14 10:44:00,
2013-01-14 05:45:00,57.1,56.0,30.06,SSW,205,0.0,0.0,96,0.02,,---,0.02,VWS V14.01,2013-01-14 10:45:00,
2013-01-14 05:49:00,57.3,56.2,30.06,SSW,205,0.0,0.0,96,0.02,,---,0.02,VWS V14.01,2013-01-14 10:49:00,
2013-01-14 05:50:00,57.3,56.2,30.06,SSW,205,0.0,0.0,96,0.02,,---,0.02,VWS V14.01,2013-01-14 10:50:00,
2013-01-14 05:54:00,57.3,56.2,30.06,SSW,205,0.0,0.0,96,0.02,,---,0.02,VWS V14.01,2013-01-14 10:54:00,
2013-01-14 05:55:00,57.3,56.2,30.06,SSW,205,0.0,0.0,96,0.02,,---,0.02,VWS V14.01,2013-01-14 10:55:00,
2013-01-14 06:00:00,57.2,56.1,30.06,SSW,205,0.0,0.0,96,0.01,,---,0.02,VWS V14.01,2013-01-14 11:00:00,
2013-01-14 06:05:00,57.2,56.1,30.06,SSW,205,0.0,0.0,96,0.01,,---,0.02,VWS V14.01,2013-01-14 11:05:00,
2013-01-14 06:10:00,57.1,56.0,30.06,SSW,205,0.0,0.0,96,0.01,,---,0.02,VWS V14.01,2013-01-14 11:10:00,
2013-01-14 06:14:00,56.8,55.7,30.07,SSW,205,0.0,0.0,96,0.01,,---,0.02,VWS V14.01,2013-01-14 11:14:00,
2013-01-14 06:15:00,56.8,55.7,30.07,SSW,205,0.0,0.0,96,0.01,,---,0.02,VWS V14.01,2013-01-14 11:15:00,
2013-01-14 06:20:00,56.7,55.6,30.07,SSW,205,0.0,0.0,96,0.01,,---,0.02,VWS V14.01,2013-01-14 11:20:00,
2013-01-14 06:25:00,56.8,55.7,30.07,SSW,205,0.0,0.0,96,0.00,,---,0.02,VWS V14.01,2013-01-14 11:25:00,
2013-01-14 06:30:00,56.8,55.7,30.07,SSW,205,0.0,0.0,96,0.00,,---,0.02,VWS V14.01,2013-01-14 11:30:00,
2013-01-14 06:35:00,56.8,56.0,30.07,SSW,205,0.0,0.0,97,0.00,,---,0.02,VWS V14.01,2013-01-14 11:35:00,
2013-01-14 06:40:00,56.9,56.1,30.07,SSW,205,0.0,0.0,97,0.00,,---,0.02,VWS V14.01,2013-01-14 11:40:00,
2013-01-14 06:45:00,57.0,56.2,30.07,SSW,205,0.0,0.0,97,0.00,,---,0.02,VWS V14.01,2013-01-14 11:45:00,
2013-01-14 06:49:00,57.0,56.2,30.07,SSW,205,0.0,0.0,97,0.00,,---,0.02,VWS V14.01,2013-01-14 11:49:00,
2013-01-14 06:50:00,57.0,56.2,30.07,SSW,205,0.0,0.0,97,0.00,,---,0.02,VWS V14.01,2013-01-14 11:50:00,
2013-01-14 06:54:00,56.9,56.1,30.07,SSW,205,0.0,0.0,97,0.00,,---,0.02,VWS V14.01,2013-01-14 11:54:00,
2013-01-14 06:55:00,56.9,56.1,30.07,SSW,205,0.0,0.0,97,0.00,,---,0.02,VWS V14.01,2013-01-14 11:55:00,
2013-01-14 07:00:00,56.7,55.6,30.07,SSW,205,0.0,0.0,96,0.00,,---,0.02,VWS V14.01,2013-01-14 12:00:00,
2013-01-14 07:05:00,56.7,55.6,30.07,SSW,205,0.0,0.0,96,0.00,,---,0.02,VWS V14.01,2013-01-14 12:05:00,
2013-01-14 07:10:00,56.6,55.5,30.08,SSW,205,0.0,0.0,96,0.00,,---,0.02,VWS V14.01,2013-01-14 12:10:00,
2013-01-14 07:15:00,56.5,55.4,30.08,SSW,205,0.0,0.0,96,0.00,,---,0.02,VWS V14.01,2013-01-14 12:15:00,
2013-01-14 07:20:00,56.7,55.9,30.08,SSW,205,0.0,0.0,97,0.00,,---,0.02,VWS V14.01,2013-01-14 12:20:00,
2013-01-14 07:25:00,56.5,55.4,30.08,SSW,205,0.0,0.0,96,0.01,,---,0.03,VWS V14.01,2013-01-14 12:25:00,
2013-01-14 07:30:00,56.5,55.4,30.08,SSW,205,0.0,0.0,96,0.01,,---,0.03,VWS V14.01,2013-01-14 12:30:00,
2013-01-14 07:35:00,56.6,55.8,30.08,SSW,205,0.0,0.0,97,0.01,,---,0.03,VWS V14.01,2013-01-14 12:35:00,
2013-01-14 07:40:00,56.7,55.9,30.08,SSW,205,0.0,0.0,97,0.01,,---,0.03,VWS V14.01,2013-01-14 12:40:00,
2013-01-14 07:45:00,56.7,55.9,30.08,SSW,205,0.0,0.0,97,0.01,,---,0.03,VWS V14.01,2013-01-14 12:45:00,
2013-01-14 07:50:00,56.7,55.9,30.08,SSW,205,0.0,0.0,97,0.01,,---,0.03,VWS V14.01,2013-01-14 12:50:00,
2013-01-14 07:54:00,56.7,55.9,30.08,SSW,205,0.0,0.0,97,0.01,,---,0.03,VWS V14.01,2013-01-14 12:54:00,
2013-01-14 07:55:00,56.7,55.9,30.08,SSW,205,0.0,0.0,97,0.01,,---,0.03,VWS V14.01,2013-01-14 12:55:00,
2013-01-14 08:00:00,57.0,56.2,30.09,SSW,205,0.0,0.0,97,0.01,,---,0.03,VWS V14.01,2013-01-14 13:00:00,
2013-01-14 08:05:00,57.4,56.6,30.09,SSW,205,0.0,0.0,97,0.01,,---,0.03,VWS V14.01,2013-01-14 13:05:00,
2013-01-14 08:10:00,57.7,56.9,30.09,SSW,205,0.0,2.0,97,0.01,,---,0.03,VWS V14.01,2013-01-14 13:10:00,
2013-01-14 08:15:00,58.1,57.3,30.09,SW,223,1.0,3.0,97,0.02,,---,0.04,VWS V14.01,2013-01-14 13:15:00,
2013-01-14 08:20:00,58.2,57.4,30.09,SW,223,0.0,1.0,97,0.02,,---,0.04,VWS V14.01,2013-01-14 13:20:00,
2013-01-14 08:25:00,58.7,57.8,30.10,SW,219,0.0,3.0,97,0.02,,---,0.04,VWS V14.01,2013-01-14 13:25:00,
2013-01-14 08:29:00,59.3,58.5,30.09,SSW,209,3.0,4.0,97,0.01,,---,0.04,VWS V14.01,2013-01-14 13:29:00,
2013-01-14 08:30:00,59.3,58.5,30.09,SSW,209,3.0,4.0,97,0.01,,---,0.04,VWS V14.01,2013-01-14 13:30:00,
2013-01-14 08:35:00,59.9,59.0,30.09,SSE,161,0.0,5.0,97,0.01,,---,0.04,VWS V14.01,2013-01-14 13:35:00,
2013-01-14 08:40:00,59.9,59.0,30.10,WSW,238,0.0,3.0,97,0.01,,---,0.04,VWS V14.01,2013-01-14 13:40:00,
2013-01-14 08:44:00,60.1,59.2,30.10,SW,221,0.0,3.0,97,0.01,,---,0.04,VWS V14.01,2013-01-14 13:44:00,
2013-01-14 08:45:00,60.1,59.2,30.10,SW,221,0.0,3.0,97,0.01,,---,0.04,VWS V14.01,2013-01-14 13:45:00,
2013-01-14 08:50:00,60.3,59.7,30.10,SW,215,0.0,2.0,98,0.01,,---,0.04,VWS V14.01,2013-01-14 13:50:00,
2013-01-14 08:55:00,60.5,59.7,30.10,SW,215,3.0,3.0,97,0.01,,---,0.04,VWS V14.01,2013-01-14 13:55:00,
2013-01-14 09:00:00,60.7,60.1,30.10,SW,215,0.0,3.0,98,0.01,,---,0.04,VWS V14.01,2013-01-14 14:00:00,
2013-01-14 09:05:00,60.9,60.3,30.10,SW,215,0.0,0.0,98,0.01,,---,0.04,VWS V14.01,2013-01-14 14:05:00,
2013-01-14 09:10:00,61.0,60.4,30.11,SW,215,2.0,3.0,98,0.02,,---,0.05,VWS V14.01,2013-01-14 14:10:00,
2013-01-14 09:15:00,61.1,60.2,30.11,SW,215,0.0,2.0,97,0.03,,---,0.06,VWS V14.01,2013-01-14 14:15:00,
2013-01-14 09:20:00,61.1,60.2,30.11,SW,215,0.0,3.0,97,0.03,,---,0.07,VWS V14.01,2013-01-14 14:20:00,
2013-01-14 09:25:00,61.1,60.2,30.10,SSE,158,0.0,4.0,97,0.03,,---,0.07,VWS V14.01,2013-01-14 14:25:00,
2013-01-14 09:30:00,61.2,60.3,30.11,South,173,2.0,2.0,97,0.03,,---,0.07,VWS V14.01,2013-01-14 14:30:00,
2013-01-14 09:35:00,61.3,60.4,30.10,SE,143,1.0,4.0,97,0.04,,---,0.08,VWS V14.01,2013-01-14 14:35:00,
2013-01-14 09:40:00,61.4,60.5,30.10,SW,227,0.0,5.0,97,0.04,,---,0.08,VWS V14.01,2013-01-14 14:40:00,
2013-01-14 09:45:00,61.4,60.5,30.10,SSW,208,0.0,3.0,97,0.04,,---,0.08,VWS V14.01,2013-01-14 14:45:00,
2013-01-14 09:50:00,61.5,60.6,30.10,SW,236,5.0,5.0,97,0.05,,---,0.09,VWS V14.01,2013-01-14 14:50:00,
2013-01-14 09:55:00,61.5,60.6,30.10,South,186,2.0,8.0,97,0.05,,---,0.09,VWS V14.01,2013-01-14 14:55:00,
2013-01-14 10:00:00,61.5,60.6,30.11,SSW,192,2.0,7.0,97,0.05,,---,0.09,VWS V14.01,2013-01-14 15:00:00,
2013-01-14 10:05:00,61.5,60.6,30.11,South,186,0.0,5.0,97,0.05,,---,0.09,VWS V14.01,2013-01-14 15:05:00,
2013-01-14 10:10:00,61.5,60.6,30.11,SSW,199,1.0,4.0,97,0.05,,---,0.09,VWS V14.01,2013-01-14 15:10:00,
2013-01-14 10:15:00,61.6,60.7,30.10,SW,219,0.0,4.0,97,0.04,,---,0.09,VWS V14.01,2013-01-14 15:15:00,
2013-01-14 10:20:00,61.6,60.7,30.10,SSW,205,0.0,4.0,97,0.03,,---,0.09,VWS V14.01,2013-01-14 15:20:00,
2013-01-14 10:25:00,61.6,60.7,30.11,SW,214,1.0,4.0,97,0.02,,---,0.09,VWS V14.01,2013-01-14 15:25:00,
2013-01-14 10:30:00,61.7,60.8,30.11,SSW,207,0.0,2.0,97,0.02,,---,0.09,VWS V14.01,2013-01-14 15:30:00,
2013-01-14 10:35:00,61.7,60.8,30.11,SSW,204,1.0,8.0,97,0.02,,---,0.09,VWS V14.01,2013-01-14 15:35:00,
2013-01-14 10:40:00,61.8,60.9,30.10,SW,227,1.0,6.0,97,0.01,,---,0.09,VWS V14.01,2013-01-14 15:40:00,
2013-01-14 10:45:00,61.9,61.0,30.10,SSW,212,2.0,3.0,97,0.01,,---,0.09,VWS V14.01,2013-01-14 15:45:00,
2013-01-14 10:50:00,62.0,61.1,30.10,SSW,196,0.0,3.0,97,0.01,,---,0.09,VWS V14.01,2013-01-14 15:50:00,
2013-01-14 10:55:00,62.0,61.1,30.10,SSW,200,1.0,6.0,97,0.00,,---,0.09,VWS V14.01,2013-01-14 15:55:00,
2013-01-14 11:00:00,62.1,61.2,30.10,SSW,206,0.0,5.0,97,0.00,,---,0.09,VWS V14.01,2013-01-14 16:00:00,
2013-01-14 11:05:00,62.1,61.0,30.10,WSW,248,0.0,4.0,96,0.00,,---,0.09,VWS V14.01,2013-01-14 16:05:00,
2013-01-14 11:10:00,62.2,61.0,30.10,South,184,0.0,6.0,96,0.00,,---,0.09,VWS V14.01,2013-01-14 16:10:00,
2013-01-14 11:15:00,62.2,61.0,30.10,SSW,213,0.0,5.0,96,0.00,,---,0.09,VWS V14.01,2013-01-14 16:15:00,
2013-01-14 11:20:00,62.2,61.0,30.09,WSW,257,7.0,7.0,96,0.00,,---,0.09,VWS V14.01,2013-01-14 16:20:00,
2013-01-14 11:25:00,62.2,61.0,30.09,South,189,0.0,7.0,96,0.00,,---,0.09,VWS V14.01,2013-01-14 16:25:00,
2013-01-14 11:30:00,62.2,61.0,30.09,SSE,151,4.0,4.0,96,0.00,,---,0.09,VWS V14.01,2013-01-14 16:30:00,
2013-01-14 11:35:00,62.3,61.2,30.09,SSE,151,1.0,4.0,96,0.00,,---,0.09,VWS V14.01,2013-01-14 16:35:00,
2013-01-14 11:40:00,62.3,61.2,30.09,SSE,151,0.0,2.0,96,0.00,,---,0.09,VWS V14.01,2013-01-14 16:40:00,
2013-01-14 11:45:00,62.3,61.2,30.08,WSW,242,1.0,4.0,96,0.00,,---,0.09,VWS V14.01,2013-01-14 16:45:00,
2013-01-14 11:50:00,62.3,61.2,30.08,WSW,244,3.0,4.0,96,0.01,,---,0.10,VWS V14.01,2013-01-14 16:50:00,
2013-01-14 11:55:00,62.3,61.2,30.08,SW,219,3.0,4.0,96,0.01,,---,0.10,VWS V14.01,2013-01-14 16:55:00,
2013-01-14 12:00:00,62.3,61.2,30.08,SW,215,0.0,6.0,96,0.01,,---,0.10,VWS V14.01,2013-01-14 17:00:00,
2013-01-14 12:05:00,62.4,61.2,30.08,SW,217,0.0,3.0,96,0.01,,---,0.10,VWS V14.01,2013-01-14 17:05:00,
2013-01-14 12:10:00,62.5,61.3,30.08,SW,214,0.0,3.0,96,0.01,,---,0.10,VWS V14.01,2013-01-14 17:10:00,
2013-01-14 12:15:00,62.5,61.3,30.08,SW,214,0.0,2.0,96,0.02,,---,0.11,VWS V14.01,2013-01-14 17:15:00,
2013-01-14 12:20:00,62.6,61.5,30.08,SW,218,0.0,2.0,96,0.03,,---,0.12,VWS V14.01,2013-01-14 17:20:00,
2013-01-14 12:25:00,62.5,61.3,30.08,SSW,209,0.0,7.0,96,0.04,,---,0.13,VWS V14.01,2013-01-14 17:25:00,
2013-01-14 12:30:00,62.6,61.5,30.08,SW,219,0.0,1.0,96,0.04,,---,0.13,VWS V14.01,2013-01-14 17:30:00,
2013-01-14 12:35:00,62.6,61.5,30.08,SW,219,1.0,2.0,96,0.05,,---,0.14,VWS V14.01,2013-01-14 17:35:00,
2013-01-14 12:40:00,62.6,61.5,30.07,SW,219,0.0,2.0,96,0.05,,---,0.14,VWS V14.01,2013-01-14 17:40:00,
2013-01-14 12:44:00,62.6,61.5,30.07,SW,217,1.0,2.0,96,0.05,,---,0.14,VWS V14.01,2013-01-14 17:44:00,
2013-01-14 12:45:00,62.6,61.5,30.07,SW,217,1.0,2.0,96,0.05,,---,0.14,VWS V14.01,2013-01-14 17:45:00,
2013-01-14 12:50:00,62.6,61.5,30.07,SW,217,0.0,2.0,96,0.05,,---,0.14,VWS V14.01,2013-01-14 17:50:00,
2013-01-14 12:55:00,62.5,61.3,30.07,SW,217,1.0,2.0,96,0.05,,---,0.15,VWS V14.01,2013-01-14 17:55:00,
2013-01-14 13:00:00,62.5,61.3,30.07,SW,217,0.0,1.0,96,0.06,,---,0.16,VWS V14.01,2013-01-14 18:00:00,
2013-01-14 13:05:00,62.5,61.3,30.06,SSW,195,0.0,3.0,96,0.06,,---,0.16,VWS V14.01,2013-01-14 18:05:00,
2013-01-14 13:10:00,62.6,61.5,30.06,SSW,195,0.0,1.0,96,0.07,,---,0.17,VWS V14.01,2013-01-14 18:10:00,
2013-01-14 13:15:00,62.7,61.8,30.06,SSW,195,0.0,2.0,97,0.07,,---,0.17,VWS V14.01,2013-01-14 18:15:00,
2013-01-14 13:20:00,62.7,61.8,30.06,SSW,195,0.0,1.0,97,0.07,,---,0.18,VWS V14.01,2013-01-14 18:20:00,
2013-01-14 13:24:00,62.8,61.9,30.06,SSW,195,0.0,1.0,97,0.06,,---,0.18,VWS V14.01,2013-01-14 18:24:00,
2013-01-14 13:25:00,62.8,61.9,30.06,SSW,195,0.0,1.0,97,0.06,,---,0.18,VWS V14.01,2013-01-14 18:25:00,
2013-01-14 13:29:00,62.9,62.0,30.06,SSW,195,0.0,1.0,97,0.05,,---,0.18,VWS V14.01,2013-01-14 18:29:00,
2013-01-14 13:30:00,62.9,62.0,30.06,SSW,195,0.0,1.0,97,0.05,,---,0.18,VWS V14.01,2013-01-14 18:30:00,
2013-01-14 13:34:00,63.1,62.2,30.06,SSW,195,0.0,0.0,97,0.06,,---,0.19,VWS V14.01,2013-01-14 18:34:00,
2013-01-14 13:35:00,63.1,62.2,30.06,SSW,195,0.0,0.0,97,0.06,,---,0.19,VWS V14.01,2013-01-14 18:35:00,
2013-01-14 13:40:00,63.0,61.8,30.06,SSW,195,0.0,1.0,96,0.05,,---,0.19,VWS V14.01,2013-01-14 18:40:00,
2013-01-14 13:45:00,63.1,62.2,30.06,SSW,195,0.0,1.0,97,0.05,,---,0.19,VWS V14.01,2013-01-14 18:45:00,
2013-01-14 13:49:00,63.1,62.2,30.06,SSW,195,0.0,0.0,97,0.05,,---,0.19,VWS V14.01,2013-01-14 18:49:00,
2013-01-14 13:50:00,63.1,62.2,30.06,SSW,195,0.0,0.0,97,0.05,,---,0.19,VWS V14.01,2013-01-14 18:50:00,
2013-01-14 13:55:00,63.0,61.8,30.06,SSW,195,0.0,2.0,96,0.05,,---,0.19,VWS V14.01,2013-01-14 18:55:00,
2013-01-14 14:00:00,63.0,61.8,30.06,SSW,195,0.0,2.0,96,0.04,,---,0.19,VWS V14.01,2013-01-14 19:00:00,
2013-01-14 14:05:00,63.0,61.8,30.06,SSW,195,0.0,1.0,96,0.03,,---,0.19,VWS V14.01,2013-01-14 19:05:00,
2013-01-14 14:10:00,63.1,62.2,30.06,SSW,195,0.0,0.0,97,0.03,,---,0.19,VWS V14.01,2013-01-14 19:10:00,
2013-01-14 14:15:00,63.1,62.2,30.06,SSW,195,0.0,0.0,97,0.02,,---,0.19,VWS V14.01,2013-01-14 19:15:00,
2013-01-14 14:20:00,63.1,62.2,30.06,SSW,195,0.0,0.0,97,0.02,,---,0.19,VWS V14.01,2013-01-14 19:20:00,
2013-01-14 14:25:00,63.1,61.9,30.07,SSW,195,0.0,0.0,96,0.01,,---,0.19,VWS V14.01,2013-01-14 19:25:00,
2013-01-14 14:30:00,63.1,62.2,30.07,SSW,195,0.0,0.0,97,0.01,,---,0.19,VWS V14.01,2013-01-14 19:30:00,
2013-01-14 14:35:00,63.1,62.2,30.07,SSW,195,0.0,0.0,97,0.02,,---,0.20,VWS V14.01,2013-01-14 19:35:00,
2013-01-14 14:40:00,63.2,62.3,30.07,SSW,195,0.0,0.0,97,0.01,,---,0.20,VWS V14.01,2013-01-14 19:40:00,
2013-01-14 14:44:00,63.2,62.3,30.07,SSW,195,0.0,1.0,97,0.01,,---,0.20,VWS V14.01,2013-01-14 19:44:00,
2013-01-14 14:45:00,63.2,62.3,30.07,SSW,195,0.0,1.0,97,0.01,,---,0.20,VWS V14.01,2013-01-14 19:45:00,
2013-01-14 14:49:00,63.2,62.3,30.07,SSW,195,0.0,0.0,97,0.01,,---,0.20,VWS V14.01,2013-01-14 19:49:00,
2013-01-14 14:50:00,63.2,62.3,30.07,SSW,195,0.0,0.0,97,0.01,,---,0.20,VWS V14.01,2013-01-14 19:50:00,
2013-01-14 14:55:00,63.2,62.3,30.07,SSW,195,0.0,0.0,97,0.01,,---,0.20,VWS V14.01,2013-01-14 19:55:00,
2013-01-14 15:00:00,63.2,62.3,30.07,SSW,195,0.0,0.0,97,0.01,,---,0.20,VWS V14.01,2013-01-14 20:00:00,
2013-01-14 15:04:00,63.2,62.3,30.07,SSW,195,0.0,0.0,97,0.01,,---,0.20,VWS V14.01,2013-01-14 20:04:00,
2013-01-14 15:05:00,63.2,62.3,30.07,SSW,195,0.0,0.0,97,0.01,,---,0.20,VWS V14.01,2013-01-14 20:05:00,
2013-01-14 15:10:00,63.3,62.4,30.08,SSW,195,0.0,0.0,97,0.01,,---,0.20,VWS V14.01,2013-01-14 20:10:00,
2013-01-14 15:15:00,63.3,62.4,30.08,SSW,195,0.0,0.0,97,0.01,,---,0.20,VWS V14.01,2013-01-14 20:15:00,
2013-01-14 15:20:00,63.3,62.4,30.08,SSW,195,0.0,0.0,97,0.01,,---,0.20,VWS V14.01,2013-01-14 20:20:00,
2013-01-14 15:25:00,63.3,62.4,30.08,SSW,195,0.0,0.0,97,0.01,,---,0.20,VWS V14.01,2013-01-14 20:25:00,
2013-01-14 15:30:00,63.2,62.3,30.08,SSW,195,0.0,0.0,97,0.01,,---,0.20,VWS V14.01,2013-01-14 20:30:00,
2013-01-14 15:35:00,63.2,62.3,30.08,SSW,195,0.0,0.0,97,0.01,,---,0.20,VWS V14.01,2013-01-14 20:35:00,
2013-01-14 15:40:00,63.2,62.3,30.08,SSW,195,0.0,0.0,97,0.01,,---,0.21,VWS V14.01,2013-01-14 20:40:00,
2013-01-14 15:45:00,63.1,62.2,30.08,SSW,195,0.0,0.0,97,0.01,,---,0.21,VWS V14.01,2013-01-14 20:45:00,
2013-01-14 15:49:00,63.1,61.9,30.08,SSW,195,0.0,0.0,96,0.01,,---,0.21,VWS V14.01,2013-01-14 20:49:00,
2013-01-14 15:50:00,63.1,61.9,30.08,SSW,195,0.0,0.0,96,0.01,,---,0.21,VWS V14.01,2013-01-14 20:50:00,
2013-01-14 15:55:00,63.1,62.2,30.09,SSW,195,0.0,0.0,97,0.01,,---,0.21,VWS V14.01,2013-01-14 20:55:00,
2013-01-14 16:00:00,63.1,62.2,30.09,SSW,195,0.0,0.0,97,0.01,,---,0.21,VWS V14.01,2013-01-14 21:00:00,
2013-01-14 16:05:00,63.1,62.2,30.09,SSW,195,0.0,0.0,97,0.01,,---,0.21,VWS V14.01,2013-01-14 21:05:00,
2013-01-14 16:10:00,63.1,62.2,30.09,SSW,195,0.0,0.0,97,0.02,,---,0.22,VWS V14.01,2013-01-14 21:10:00,
2013-01-14 16:15:00,63.1,62.2,30.09,SSW,195,0.0,0.0,97,0.03,,---,0.23,VWS V14.01,2013-01-14 21:15:00,
2013-01-14 16:20:00,63.1,62.2,30.10,SSW,195,0.0,0.0,97,0.04,,---,0.24,VWS V14.01,2013-01-14 21:20:00,
2013-01-14 16:25:00,63.1,62.2,30.10,SSW,195,0.0,0.0,97,0.04,,---,0.24,VWS V14.01,2013-01-14 21:25:00,
2013-01-14 16:30:00,63.0,62.1,30.10,SSW,195,0.0,0.0,97,0.04,,---,0.24,VWS V14.01,2013-01-14 21:30:00,
2013-01-14 16:35:00,63.0,62.1,30.10,SSW,195,0.0,0.0,97,0.05,,---,0.25,VWS V14.01,2013-01-14 21:35:00,
2013-01-14 16:40:00,63.0,62.1,30.10,SSW,195,0.0,0.0,97,0.05,,---,0.25,VWS V14.01,2013-01-14 21:40:00,
2013-01-14 16:45:00,63.0,62.1,30.10,SSW,195,0.0,0.0,97,0.05,,---,0.26,VWS V14.01,2013-01-14 21:45:00,
2013-01-14 16:50:00,63.0,62.1,30.10,SSW,195,0.0,0.0,97,0.06,,---,0.27,VWS V14.01,2013-01-14 21:50:00,
2013-01-14 16:55:00,62.9,62.0,30.10,SSW,195,0.0,0.0,97,0.07,,---,0.28,VWS V14.01,2013-01-14 21:55:00,
2013-01-14 16:59:00,62.9,62.0,30.10,SSW,195,0.0,0.0,97,0.09,,---,0.30,VWS V14.01,2013-01-14 21:59:00,
2013-01-14 17:00:00,62.9,62.0,30.10,SSW,195,0.0,0.0,97,0.09,,---,0.30,VWS V14.01,2013-01-14 22:00:00,
2013-01-14 17:04:00,62.9,62.0,30.11,SSW,195,0.0,0.0,97,0.09,,---,0.30,VWS V14.01,2013-01-14 22:04:00,
2013-01-14 17:05:00,62.9,62.0,30.11,SSW,195,0.0,0.0,97,0.09,,---,0.30,VWS V14.01,2013-01-14 22:05:00,
2013-01-14 17:09:00,62.9,62.0,30.11,SSW,195,0.0,0.0,97,0.11,,---,0.32,VWS V14.01,2013-01-14 22:09:00,
2013-01-14 17:10:00,62.9,62.0,30.11,SSW,195,0.0,0.0,97,0.11,,---,0.32,VWS V14.01,2013-01-14 22:10:00,
2013-01-14 17:15:00,62.8,61.9,30.11,SSW,195,0.0,0.0,97,0.10,,---,0.32,VWS V14.01,2013-01-14 22:15:00,
2013-01-14 17:20:00,62.8,61.9,30.10,SSW,195,0.0,0.0,97,0.10,,---,0.33,VWS V14.01,2013-01-14 22:20:00,
2013-01-14 17:24:00,62.4,61.5,30.11,North,351,1.0,3.0,97,0.10,,---,0.34,VWS V14.01,2013-01-14 22:24:00,
2013-01-14 17:25:00,62.4,61.5,30.11,North,351,1.0,3.0,97,0.10,,---,0.34,VWS V14.01,2013-01-14 22:25:00,
2013-01-14 17:29:00,60.8,59.4,30.11,NNE,19,3.0,4.0,95,0.10,,---,0.34,VWS V14.01,2013-01-14 22:29:00,
2013-01-14 17:30:00,60.8,59.4,30.11,NNE,19,3.0,4.0,95,0.10,,---,0.34,VWS V14.01,2013-01-14 22:30:00,
2013-01-14 17:35:00,59.9,58.5,30.11,NNE,33,0.0,3.0,95,0.11,,---,0.35,VWS V14.01,2013-01-14 22:35:00,
2013-01-14 17:40:00,59.4,58.0,30.11,NNE,33,2.0,2.0,95,0.11,,---,0.36,VWS V14.01,2013-01-14 22:40:00,
2013-01-14 17:45:00,59.1,58.0,30.11,NNE,22,2.0,4.0,96,0.11,,---,0.36,VWS V14.01,2013-01-14 22:45:00,
2013-01-14 17:50:00,58.5,57.4,30.10,NNE,26,0.0,4.0,96,0.10,,---,0.36,VWS V14.01,2013-01-14 22:50:00,
2013-01-14 17:55:00,58.1,57.0,30.10,NNE,25,1.0,2.0,96,0.09,,---,0.36,VWS V14.01,2013-01-14 22:55:00,
2013-01-14 18:00:00,57.7,56.6,30.11,NNE,13,0.0,3.0,96,0.08,,---,0.36,VWS V14.01,2013-01-14 23:00:00,
2013-01-14 18:05:00,57.5,56.4,30.11,NNE,13,2.0,2.0,96,0.07,,---,0.37,VWS V14.01,2013-01-14 23:05:00,
2013-01-14 18:10:00,57.3,56.2,30.11,NNE,13,1.0,2.0,96,0.08,,---,0.38,VWS V14.01,2013-01-14 23:10:00,
2013-01-14 18:15:00,57.2,56.1,30.11,NNE,13,0.0,1.0,96,0.06,,---,0.38,VWS V14.01,2013-01-14 23:15:00,
2013-01-14 18:20:00,57.1,56.0,30.11,North,5,0.0,3.0,96,0.06,,---,0.38,VWS V14.01,2013-01-14 23:20:00,
2013-01-14 18:25:00,57.1,56.0,30.11,North,5,0.0,1.0,96,0.06,,---,0.39,VWS V14.01,2013-01-14 23:25:00,
2013-01-14 18:30:00,56.9,56.1,30.11,North,5,0.0,1.0,97,0.05,,---,0.39,VWS V14.01,2013-01-14 23:30:00,
2013-01-14 18:34:00,56.9,56.1,30.11,North,5,0.0,0.0,97,0.07,,---,0.41,VWS V14.01,2013-01-14 23:34:00,
2013-01-14 18:35:00,56.9,56.1,30.11,North,5,0.0,0.0,97,0.07,,---,0.41,VWS V14.01,2013-01-14 23:35:00,
2013-01-14 18:39:00,56.9,56.1,30.11,North,5,0.0,2.0,97,0.08,,---,0.43,VWS V14.01,2013-01-14 23:39:00,
2013-01-14 18:40:00,56.9,56.1,30.11,North,5,0.0,2.0,97,0.08,,---,0.43,VWS V14.01,2013-01-14 23:40:00,
2013-01-14 18:45:00,56.8,56.0,30.11,North,5,0.0,2.0,97,0.09,,---,0.45,VWS V14.01,2013-01-14 23:45:00,
2013-01-14 18:50:00,56.8,56.0,30.11,North,5,0.0,1.0,97,0.10,,---,0.46,VWS V14.01,2013-01-14 23:50:00,
2013-01-14 18:55:00,56.8,56.0,30.11,North,5,0.0,3.0,97,0.10,,---,0.46,VWS V14.01,2013-01-14 23:55:00,
2013-01-14 19:00:00,56.7,55.9,30.11,North,5,0.0,1.0,97,0.10,,---,0.46,VWS V14.01,2013-01-15 00:00:00,
2013-01-14 19:05:00,56.7,55.9,30.11,North,5,1.0,2.0,97,0.11,,---,0.47,VWS V14.01,2013-01-15 00:05:00,
2013-01-14 19:10:00,56.7,55.9,30.11,North,5,0.0,2.0,97,0.12,,---,0.49,VWS V14.01,2013-01-15 00:10:00,
2013-01-14 19:15:00,56.7,55.9,30.11,North,5,0.0,1.0,97,0.13,,---,0.51,VWS V14.01,2013-01-15 00:15:00,
2013-01-14 19:20:00,56.7,55.9,30.11,North,5,0.0,1.0,97,0.14,,---,0.52,VWS V14.01,2013-01-15 00:20:00,
2013-01-14 19:24:00,56.6,55.8,30.11,North,5,0.0,2.0,97,0.15,,---,0.53,VWS V14.01,2013-01-15 00:24:00,
2013-01-14 19:25:00,56.6,55.8,30.11,North,5,0.0,2.0,97,0.15,,---,0.53,VWS V14.01,2013-01-15 00:25:00,
2013-01-14 19:29:00,56.7,55.9,30.11,North,5,0.0,1.0,97,0.15,,---,0.54,VWS V14.01,2013-01-15 00:29:00,
2013-01-14 19:30:00,56.7,55.9,30.11,North,5,0.0,1.0,97,0.15,,---,0.54,VWS V14.01,2013-01-15 00:30:00,
2013-01-14 19:35:00,56.7,55.9,30.11,North,5,2.0,2.0,97,0.16,,---,0.55,VWS V14.01,2013-01-15 00:35:00,
2013-01-14 19:40:00,56.7,55.9,30.12,North,5,0.0,3.0,97,0.15,,---,0.56,VWS V14.01,2013-01-15 00:40:00,
2013-01-14 19:45:00,56.7,55.9,30.11,NE,40,0.0,2.0,97,0.16,,---,0.59,VWS V14.01,2013-01-15 00:45:00,
2013-01-14 19:50:00,56.7,55.9,30.12,NE,40,1.0,2.0,97,0.16,,---,0.61,VWS V14.01,2013-01-15 00:50:00,
2013-01-14 19:55:00,56.7,55.9,30.12,NE,40,2.0,3.0,97,0.16,,---,0.62,VWS V14.01,2013-01-15 00:55:00,
2013-01-14 20:00:00,56.7,55.9,30.12,NE,37,0.0,3.0,97,0.17,,---,0.63,VWS V14.01,2013-01-15 01:00:00,
2013-01-14 20:05:00,56.6,55.8,30.12,NNE,25,6.0,8.0,97,0.18,,---,0.64,VWS V14.01,2013-01-15 01:05:00,
2013-01-14 20:10:00,55.5,54.7,30.12,NNE,22,0.0,1.0,97,0.24,,---,0.88,VWS V14.01,2013-01-15 01:10:00,
2013-01-14 20:15:00,56.2,55.4,30.12,North,360,0.0,4.0,97,0.16,,---,0.65,VWS V14.01,2013-01-15 01:15:00,
2013-01-14 20:20:00,55.5,54.7,30.12,NNE,22,1.0,2.0,97,0.23,,---,0.88,VWS V14.01,2013-01-15 01:20:00,
2013-01-14 20:25:00,56.0,55.2,30.12,NNE,22,2.0,5.0,97,0.19,,---,0.71,VWS V14.01,2013-01-15 01:25:00,
2013-01-14 20:30:00,55.5,54.7,30.12,NNE,22,0.0,2.0,97,0.17,,---,0.88,VWS V14.01,2013-01-15 01:30:00,
2013-01-14 20:35:00,56.0,55.2,30.12,NNE,22,0.0,1.0,97,0.20,,---,0.74,VWS V14.01,2013-01-15 01:35:00,
2013-01-14 20:40:00,55.9,55.1,30.12,NNE,22,0.0,2.0,97,0.21,,---,0.76,VWS V14.01,2013-01-15 01:40:00,
2013-01-14 20:45:00,55.8,55.0,30.12,NNE,22,0.0,2.0,97,0.23,,---,0.79,VWS V14.01,2013-01-15 01:45:00,
2013-01-14 20:50:00,55.8,55.0,30.12,NNE,22,0.0,3.0,97,0.23,,---,0.82,VWS V14.01,2013-01-15 01:50:00,
2013-01-14 20:55:00,55.7,54.9,30.12,NNE,22,1.0,2.0,97,0.23,,---,0.84,VWS V14.01,2013-01-15 01:55:00,
2013-01-14 21:00:00,55.7,54.9,30.12,NNE,22,0.0,2.0,97,0.25,,---,0.87,VWS V14.01,2013-01-15 02:00:00,
2013-01-14 21:05:00,55.6,54.8,30.12,NNE,22,0.0,0.0,97,0.24,,---,0.87,VWS V14.01,2013-01-15 02:05:00,
2013-01-14 21:10:00,55.5,54.7,30.12,NNE,22,0.0,1.0,97,0.24,,---,0.88,VWS V14.01,2013-01-15 02:10:00,
2013-01-14 21:15:00,55.5,54.7,30.12,NNE,22,0.0,1.0,97,0.24,,---,0.88,VWS V14.01,2013-01-15 02:15:00,
2013-01-14 21:19:00,55.5,54.7,30.12,NNE,22,1.0,2.0,97,0.23,,---,0.88,VWS V14.01,2013-01-15 02:19:00,
2013-01-14 21:20:00,55.5,54.7,30.12,NNE,22,1.0,2.0,97,0.23,,---,0.88,VWS V14.01,2013-01-15 02:20:00,
2013-01-14 21:25:00,55.5,54.7,30.12,NNE,22,0.0,1.0,97,0.19,,---,0.88,VWS V14.01,2013-01-15 02:25:00,
2013-01-14 21:30:00,55.5,54.7,30.12,NNE,22,0.0,2.0,97,0.17,,---,0.88,VWS V14.01,2013-01-15 02:30:00,
2013-01-14 21:35:00,55.5,54.7,30.12,NNE,22,1.0,3.0,97,0.16,,---,0.88,VWS V14.01,2013-01-15 02:35:00,
2013-01-14 21:40:00,55.4,54.6,30.12,NNE,23,2.0,2.0,97,0.14,,---,0.88,VWS V14.01,2013-01-15 02:40:00,
2013-01-14 21:45:00,55.4,54.6,30.12,NNE,24,0.0,5.0,97,0.12,,---,0.88,VWS V14.01,2013-01-15 02:45:00,
2013-01-14 21:50:00,55.4,54.6,30.12,NNE,24,1.0,1.0,97,0.09,,---,0.88,VWS V14.01,2013-01-15 02:50:00,
2013-01-14 21:55:00,55.4,54.6,30.11,NNE,24,0.0,2.0,97,0.06,,---,0.88,VWS V14.01,2013-01-15 02:55:00,
2013-01-14 22:00:00,55.4,54.6,30.11,NNE,24,0.0,2.0,97,0.04,,---,0.88,VWS V14.01,2013-01-15 03:00:00,
2013-01-14 22:05:00,55.3,54.5,30.12,NNE,24,1.0,3.0,97,0.01,,---,0.88,VWS V14.01,2013-01-15 03:05:00,
2013-01-14 22:10:00,55.3,54.5,30.12,North,9,2.0,4.0,97,0.01,,---,0.88,VWS V14.01,2013-01-15 03:10:00,
2013-01-14 22:15:00,55.3,54.5,30.12,NNE,24,2.0,5.0,97,0.00,,---,0.88,VWS V14.01,2013-01-15 03:15:00,
2013-01-14 22:20:00,55.3,54.5,30.12,NE,50,1.0,3.0,97,0.00,,---,0.88,VWS V14.01,2013-01-15 03:20:00,
2013-01-14 22:25:00,55.2,54.4,30.12,NE,53,0.0,5.0,97,0.00,,---,0.88,VWS V14.01,2013-01-15 03:25:00,
2013-01-14 22:29:00,55.2,54.4,30.12,NE,53,2.0,3.0,97,0.00,,---,0.88,VWS V14.01,2013-01-15 03:29:00,
2013-01-14 22:30:00,55.2,54.4,30.12,NE,53,2.0,3.0,97,0.00,,---,0.88,VWS V14.01,2013-01-15 03:30:00,
2013-01-14 22:35:00,55.1,54.3,30.12,ENE,57,0.0,3.0,97,0.00,,---,0.88,VWS V14.01,2013-01-15 03:35:00,
2013-01-14 22:40:00,55.1,54.3,30.12,ENE,57,2.0,3.0,97,0.00,,---,0.88,VWS V14.01,2013-01-15 03:40:00,
2013-01-14 22:45:00,55.1,54.3,30.12,NNE,12,3.0,4.0,97,0.00,,---,0.88,VWS V14.01,2013-01-15 03:45:00,
2013-01-14 22:49:00,55.1,54.3,30.14,NE,51,3.0,4.0,97,0.00,,---,0.88,VWS V14.01,2013-01-15 03:49:00,
2013-01-14 22:50:00,55.1,54.3,30.14,NE,51,3.0,4.0,97,0.00,,---,0.88,VWS V14.01,2013-01-15 03:50:00,
2013-01-14 22:54:00,55.0,54.2,30.14,NNE,20,3.0,7.0,97,0.00,,---,0.88,VWS V14.01,2013-01-15 03:54:00,
2013-01-14 22:55:00,55.0,54.2,30.14,NNE,20,3.0,7.0,97,0.00,,---,0.88,VWS V14.01,2013-01-15 03:55:00,
2013-01-14 23:00:00,55.0,54.2,30.16,West,281,4.0,10.0,97,0.00,,---,0.88,VWS V14.01,2013-01-15 04:00:00,
2013-01-14 23:05:00,54.9,54.1,30.13,NE,46,4.0,6.0,97,0.00,,---,0.88,VWS V14.01,2013-01-15 04:05:00,
2013-01-14 23:09:00,54.7,53.9,30.15,North,350,4.0,9.0,97,0.00,,---,0.88,VWS V14.01,2013-01-15 04:09:00,
2013-01-14 23:10:00,54.7,53.9,30.15,North,350,4.0,9.0,97,0.00,,---,0.88,VWS V14.01,2013-01-15 04:10:00,
2013-01-14 23:15:00,54.8,54.0,30.17,NW,323,5.0,14.0,97,0.00,,---,0.88,VWS V14.01,2013-01-15 04:15:00,
2013-01-14 23:20:00,54.8,53.7,30.16,ENE,64,3.0,12.0,96,0.00,,---,0.88,VWS V14.01,2013-01-15 04:20:00,
2013-01-14 23:24:00,54.7,53.6,30.16,NNE,25,5.0,12.0,96,0.00,,---,0.88,VWS V14.01,2013-01-15 04:24:00,
2013-01-14 23:25:00,54.7,53.6,30.16,NNE,25,5.0,12.0,96,0.00,,---,0.88,VWS V14.01,2013-01-15 04:25:00,
2013-01-14 23:30:00,54.6,53.5,30.17,NNE,24,8.0,11.0,96,0.01,,---,0.89,VWS V14.01,2013-01-15 04:30:00,
2013-01-14 23:35:00,54.5,53.1,30.16,ENE,76,0.0,8.0,95,0.02,,---,0.90,VWS V14.01,2013-01-15 04:35:00,
2013-01-14 23:40:00,54.3,53.2,30.17,East,80,1.0,5.0,96,0.02,,---,0.90,VWS V14.01,2013-01-15 04:40:00,
2013-01-14 23:44:00,54.2,53.1,30.17,NE,39,2.0,6.0,96,0.02,,---,0.90,VWS V14.01,2013-01-15 04:44:00,
2013-01-14 23:45:00,54.2,53.1,30.17,NE,39,2.0,6.0,96,0.02,,---,0.90,VWS V14.01,2013-01-15 04:45:00,
2013-01-14 23:50:00,53.8,52.4,30.17,NE,36,2.0,8.0,95,0.03,,---,0.91,VWS V14.01,2013-01-15 04:50:00,
2013-01-14 23:55:00,53.5,52.1,30.17,NE,40,4.0,5.0,95,0.05,,---,0.93,VWS V14.01,2013-01-15 04:55:00,